BNK weather

Ballina Byron Gateway Airport
Ballina, New South Wales, Australia

Public forecast

Using degrees Celsius for public forecast. Weather courtesy of forecast.io.

Current aviation weather report (METAR) for Ballina Byron Gateway Airport

Retrieved 2019/10/23 06:00 UTC (11 minutes ago):

YBNA 230600Z AUTO 03011KT 9999 // NCD 22/16 Q1021

Closest aviation forecast (TAF) to Ballina Byron Gateway Airport

Forecast is more than 6 hours old.

Closest forecast is Gold Coast Airport, 40.3 nm (74.7 km) N. Retrieved 2019-10-23 00:00 UTC (6 hours ago):

TAF YBCG 222307Z 2300/2324 11008KT 9999 SCT035 FM230100 05012KT 9999 FEW040 FM230900 23006KT 9999 FEW030